Pownal, Vermont
Current Conditions -  °F | °C
As of 3:52 AM on Sunday 26 Oct 2014 (Local Time) from KAQW Reporting Station
Overcast Overcast  
Wind Chill: 46°   Ceiling: 6000
Heat Index: 48°   Visibility: 10mi
Dew Point: 44°   Wind: 5mph
Humidity: 86%   Direction: 300°WNW
Pressure: 29.5"   Gusts: NA
Location:  42.77°N, 73.23°W
Report Text: KAQW 260752Z AUTO 30004KT 10SM BKN060 OVC080 09/07 A2950 RMK AO2 RAE18 SLP989 P0001 T00890067
Loading
Personal Weather Stations






























Interactive Weather Map
Tropical Storm Tracking
New forecast layout! Learn more

10-Day Weather Forecast

Advertisements
Track Severe Weather on mobile